Time;durP1;ratioP1;P1;durP2;ratioP2;P2;SDS_P1;SDS_P2;PMS_P1;PMS_P2;Temp;Humidity;BMP_temperature;BMP_pressure;BME280_temperature;BME280_humidity;BME280_pressure;Samples;Min_cycle;Max_cycle;Signal;HPM_P1;HPM_P2
2022/11/07 00:00:09;;;;;;;4.87;3.33;;;;;;;7.59;100.00;99732.94;4895182;29;20500;-73
2022/11/07 00:02:37;;;;;;;5.28;3.20;;;;;;;7.61;100.00;99720.31;4940676;29;20117;-74
2022/11/07 00:05:03;;;;;;;6.22;3.08;;;;;;;7.60;100.00;99705.38;4943313;29;20023;-73
2022/11/07 00:07:28;;;;;;;5.80;3.40;;;;;;;7.63;100.00;99695.41;4958669;28;20080;-74
2022/11/07 00:09:53;;;;;;;4.10;2.70;;;;;;;7.76;100.00;99654.03;4942439;29;20509;-74
2022/11/07 00:12:19;;;;;;;6.00;2.90;;;;;;;7.80;100.00;99639.41;4942480;29;20242;-73
2022/11/07 00:14:44;;;;;;;4.23;2.60;;;;;;;7.83;100.00;99628.44;4942219;29;20070;-74
2022/11/07 00:17:09;;;;;;;4.83;2.63;;;;;;;7.82;100.00;99604.72;4926627;29;20090;-74
2022/11/07 00:19:35;;;;;;;5.40;3.17;;;;;;;7.83;100.00;99591.22;4926205;29;20043;-74
2022/11/07 00:22:00;;;;;;;7.20;2.83;;;;;;;7.85;100.00;99585.75;4912884;29;20043;-74
2022/11/07 00:24:25;;;;;;;6.10;3.57;;;;;;;7.85;100.00;99576.97;4943301;29;20031;-73
2022/11/07 00:26:51;;;;;;;4.43;2.63;;;;;;;7.91;100.00;99562.94;4942453;29;20175;-74
2022/11/07 00:29:18;;;;;;;3.30;2.63;;;;;;;7.92;100.00;99552.16;4944304;29;20054;-73
2022/11/07 00:31:45;;;;;;;4.95;3.03;;;;;;;7.96;100.00;99550.81;4942274;29;20039;-73
2022/11/07 00:34:11;;;;;;;6.57;3.10;;;;;;;7.94;100.00;99539.53;4943549;29;20032;-73
2022/11/07 00:36:36;;;;;;;4.88;3.08;;;;;;;7.98;100.00;99538.19;4925330;29;20042;-73
2022/11/07 00:39:02;;;;;;;6.73;3.80;;;;;;;7.99;100.00;99537.16;4913187;29;20512;-73
2022/11/07 00:41:27;;;;;;;5.03;3.58;;;;;;;8.04;100.00;99529.50;4910722;29;20042;-73
2022/11/07 00:43:53;;;;;;;7.50;3.37;;;;;;;8.09;100.00;99531.63;4924750;29;20032;-73
2022/11/07 00:46:19;;;;;;;7.72;3.60;;;;;;;8.04;100.00;99516.19;4920060;29;20070;-73
2022/11/07 00:48:45;;;;;;;4.70;2.92;;;;;;;8.11;100.00;99512.84;4928686;29;20171;-73
2022/11/07 00:51:17;;;;;;;5.55;3.88;;;;;;;8.12;100.00;99514.50;4961933;28;20031;-73
2022/11/07 00:53:56;;;;;;;5.18;3.42;;;;;;;8.16;100.00;99526.44;5102372;27;20738;-74
2022/11/07 00:56:24;;;;;;;5.43;3.23;;;;;;;8.19;100.00;99534.91;5097929;28;20039;-74
2022/11/07 00:58:57;;;;;;;6.80;3.20;;;;;;;8.20;100.00;99527.75;5096550;28;20028;-73
2022/11/07 01:01:25;;;;;;;8.43;3.72;;;;;;;8.17;100.00;99530.72;5099312;28;20023;-73
2022/11/07 01:06:37;;;;;;;5.47;3.53;;;;;;;8.19;100.00;99547.34;5098650;28;20039;-74
2022/11/07 01:09:05;;;;;;;12.70;4.30;;;;;;;8.20;100.00;99544.50;5098901;28;20023;-75
2022/11/07 01:11:30;;;;;;;6.72;3.70;;;;;;;8.18;100.00;99553.66;5098187;28;20347;-74
2022/11/07 01:13:57;;;;;;;6.73;3.87;;;;;;;8.20;100.00;99560.47;5097506;28;20047;-73
2022/11/07 01:16:22;;;;;;;6.53;3.72;;;;;;;8.20;100.00;99568.44;5098778;28;20491;-74
2022/11/07 01:18:48;;;;;;;7.20;3.50;;;;;;;8.22;100.00;99544.34;5079415;28;20419;-74
2022/11/07 01:21:13;;;;;;;10.73;3.80;;;;;;;8.23;100.00;99559.28;5099278;28;20157;-74
2022/11/07 01:23:38;;;;;;;6.63;4.53;;;;;;;8.26;100.00;99569.56;5079700;28;20036;-73
2022/11/07 01:26:06;;;;;;;5.13;3.53;;;;;;;8.25;100.00;99563.41;5080212;28;20036;-75
2022/11/07 01:28:32;;;;;;;7.30;3.67;;;;;;;8.26;100.00;99598.81;5080577;28;20035;-74
2022/11/07 01:30:57;;;;;;;7.65;3.65;;;;;;;8.23;100.00;99612.47;5096245;28;20105;-74
2022/11/07 01:33:22;;;;;;;5.60;3.97;;;;;;;8.24;100.00;99608.78;5096951;28;20598;-74
2022/11/07 01:35:48;;;;;;;6.00;4.00;;;;;;;8.29;100.00;99608.25;5095581;28;20048;-74
2022/11/07 01:38:13;;;;;;;5.00;3.47;;;;;;;8.27;100.00;99615.63;5099016;28;20050;-73
2022/11/07 01:44:07;;;;;;;8.07;3.80;;;;;;;8.31;100.00;99647.00;5089923;28;20092;-73
2022/11/07 01:46:33;;;;;;;5.93;3.90;;;;;;;8.33;100.00;99662.75;5074762;28;20413;-73
2022/11/07 01:49:19;;;;;;;7.93;4.40;;;;;;;8.37;100.00;99674.72;5074637;28;20553;-73
2022/11/07 01:52:04;;;;;;;7.22;3.83;;;;;;;8.45;100.00;99693.31;5056014;28;20194;-72
2022/11/07 01:54:36;;;;;;;9.65;4.43;;;;;;;8.48;100.00;99710.78;5074588;28;20448;-74
2022/11/07 01:57:06;;;;;;;9.77;5.03;;;;;;;8.51;100.00;99718.41;5059777;28;20051;-73
2022/11/07 01:59:34;;;;;;;8.52;5.10;;;;;;;8.52;100.00;99728.03;5058240;28;20107;-73
2022/11/07 02:02:00;;;;;;;6.95;5.25;;;;;;;8.50;100.00;99730.03;5042818;28;20056;-74
2022/11/07 02:04:29;;;;;;;11.55;6.38;;;;;;;8.54;100.00;99752.63;5026405;28;20125;-73
2022/11/07 02:07:02;;;;;;;8.93;5.88;;;;;;;8.58;100.00;99748.63;5059935;28;20049;-73
2022/11/07 02:09:27;;;;;;;8.25;5.93;;;;;;;8.60;100.00;99735.97;5056771;28;20489;-73
2022/11/07 02:11:52;;;;;;;8.20;5.50;;;;;;;8.58;100.00;99744.13;5042817;28;20148;-74
2022/11/07 02:14:18;;;;;;;6.93;4.50;;;;;;;8.57;100.00;99739.81;5023137;28;20028;-73
2022/11/07 02:16:44;;;;;;;11.10;5.10;;;;;;;8.63;100.00;99740.94;5052028;28;20135;-73
2022/11/07 02:19:20;;;;;;;10.13;5.72;;;;;;;8.64;100.00;99721.34;5066337;28;20127;-73
2022/11/07 02:22:01;;;;;;;10.40;5.18;;;;;;;8.65;100.00;99737.09;5082747;28;20036;-73
2022/11/07 02:24:30;;;;;;;6.88;5.15;;;;;;;8.64;100.00;99737.31;5082762;28;20036;-73
2022/11/07 02:26:57;;;;;;;10.10;4.45;;;;;;;8.68;100.00;99743.91;5082441;28;20029;-73
2022/11/07 02:29:24;;;;;;;10.75;4.97;;;;;;;8.71;100.00;99735.59;5082911;28;20023;-73
2022/11/07 02:32:10;;;;;;;13.30;5.38;;;;;;;8.81;100.00;99738.03;5081477;28;20039;-73
2022/11/07 02:34:36;;;;;;;8.50;4.55;;;;;;;8.79;100.00;99708.91;5064907;28;20040;-72
2022/11/07 02:37:07;;;;;;;7.70;4.43;;;;;;;8.83;100.00;99707.56;5065192;28;20039;-72
2022/11/07 02:39:32;;;;;;;6.57;4.40;;;;;;;8.82;100.00;99716.53;5065465;28;20035;-73
2022/11/07 02:42:00;;;;;;;9.82;4.80;;;;;;;8.86;100.00;99719.69;5081527;28;20013;-73
2022/11/07 02:44:28;;;;;;;6.25;3.95;;;;;;;8.86;100.00;99722.34;5082316;28;20048;-72
2022/11/07 02:46:55;;;;;;;8.23;4.20;;;;;;;8.88;100.00;99734.47;5080758;28;20502;-73
2022/11/07 02:49:20;;;;;;;7.03;4.40;;;;;;;8.91;100.00;99729.81;5072431;28;20553;-73
2022/11/07 02:51:45;;;;;;;7.57;3.77;;;;;;;8.95;100.00;99729.28;5079781;28;20081;-74
2022/11/07 02:54:11;;;;;;;9.37;4.20;;;;;;;8.94;100.00;99724.94;5083465;28;20036;-73
2022/11/07 02:56:36;;;;;;;7.53;3.80;;;;;;;9.02;100.00;99724.91;5081076;28;20030;-73
2022/11/07 02:59:01;;;;;;;5.67;4.03;;;;;;;9.12;100.00;99723.84;5082886;28;20036;-73
2022/11/07 03:01:27;;;;;;;5.43;4.32;;;;;;;9.13;100.00;99722.81;5082247;28;20028;-73
2022/11/07 03:03:52;;;;;;;8.80;3.87;;;;;;;9.13;100.00;99726.34;5081511;28;20029;-73
2022/11/07 03:06:22;;;;;;;9.27;4.37;;;;;;;9.15;100.00;99721.63;5081921;28;20020;-74
2022/11/07 03:08:48;;;;;;;6.68;3.72;;;;;;;9.21;100.00;99718.28;5081664;28;20404;-73
2022/11/07 03:11:18;;;;;;;6.70;3.75;;;;;;;9.17;100.00;99716.97;5082069;28;20028;-72
2022/11/07 03:13:45;;;;;;;7.00;3.97;;;;;;;9.17;100.00;99710.81;5081379;28;20032;-72
2022/11/07 03:16:10;;;;;;;12.05;5.35;;;;;;;9.12;100.00;99716.69;5081866;28;20043;-73
2022/11/07 03:18:36;;;;;;;9.07;5.27;;;;;;;9.12;100.00;99730.00;5064270;28;20334;-73
2022/11/07 03:21:02;;;;;;;9.95;4.47;;;;;;;9.11;100.00;99732.81;5081261;28;20368;-74
2022/11/07 03:23:28;;;;;;;24.85;5.28;;;;;;;9.11;100.00;99736.34;5082952;28;20508;-73
2022/11/07 03:25:54;;;;;;;9.37;4.20;;;;;;;9.11;100.00;99744.31;5079942;28;20036;-72
2022/11/07 03:28:19;;;;;;;7.95;4.57;;;;;;;9.15;100.00;99763.41;5081563;28;20032;-72
2022/11/07 03:30:44;;;;;;;9.53;4.97;;;;;;;9.13;100.00;99768.94;5080051;28;20055;-74
2022/11/07 03:33:10;;;;;;;11.67;4.80;;;;;;;9.18;100.00;99766.56;5081255;28;20035;-72
2022/11/07 03:35:35;;;;;;;8.07;4.33;;;;;;;9.18;100.00;99755.91;5081871;28;20043;-73
2022/11/07 03:38:00;;;;;;;9.70;4.53;;;;;;;9.23;100.00;99758.88;5082035;28;20364;-73
2022/11/07 03:40:26;;;;;;;5.87;4.10;;;;;;;9.27;100.00;99762.84;5081526;28;20094;-73
2022/11/07 03:42:51;;;;;;;9.53;4.20;;;;;;;9.25;100.00;99742.72;5079908;28;20025;-73
2022/11/07 03:45:17;;;;;;;7.90;4.17;;;;;;;9.25;100.00;99751.53;5076932;28;20028;-73
2022/11/07 03:47:44;;;;;;;4.90;3.53;;;;;;;9.28;100.00;99755.69;5081058;28;21007;-73
2022/11/07 03:50:14;;;;;;;11.98;3.65;;;;;;;9.32;100.00;99754.31;5064493;28;20032;-72
2022/11/07 03:52:40;;;;;;;7.00;3.78;;;;;;;9.34;100.00;99732.81;5079271;28;20470;-73
2022/11/07 03:55:06;;;;;;;7.03;4.20;;;;;;;9.40;100.00;99748.09;5081937;28;20031;-72
2022/11/07 03:57:31;;;;;;;11.02;4.07;;;;;;;9.39;100.00;99730.44;5064264;28;20035;-73
2022/11/07 03:59:56;;;;;;;10.57;4.67;;;;;;;9.38;100.00;99731.47;5076903;28;20036;-73
2022/11/07 04:02:22;;;;;;;9.23;4.27;;;;;;;9.44;100.00;99744.06;5070904;28;20051;-74
2022/11/07 04:04:48;;;;;;;13.60;3.83;;;;;;;9.49;100.00;99755.00;5079067;28;20024;-73
2022/11/07 04:07:13;;;;;;;7.20;3.88;;;;;;;9.53;100.00;99727.00;5080989;28;20507;-72
2022/11/07 04:09:38;;;;;;;9.20;3.77;;;;;;;9.51;100.00;99737.00;5062940;28;20055;-73
2022/11/07 04:17:32;;;;;;;7.05;4.57;;;;;;;9.57;100.00;99744.28;5079923;28;20200;-73
2022/11/07 04:19:57;;;;;;;8.27;4.50;;;;;;;9.60;100.00;99745.75;5080766;28;20533;-73
2022/11/07 04:22:24;;;;;;;9.97;4.77;;;;;;;9.58;100.00;99729.94;5063370;28;20853;-73
2022/11/07 04:24:50;;;;;;;6.85;3.40;;;;;;;9.63;100.00;99766.72;5061956;28;20032;-73
2022/11/07 04:30:17;;;;;;;11.43;4.22;;;;;;;9.57;100.00;99757.59;5080268;28;20555;-72
2022/11/07 04:32:54;;;;;;;7.50;3.67;;;;;;;9.59;100.00;99773.41;5080139;28;20063;-72
2022/11/07 04:35:22;;;;;;;7.72;4.15;;;;;;;9.61;100.00;99782.88;5079824;28;20036;-73
2022/11/07 04:37:47;;;;;;;8.77;4.22;;;;;;;9.63;100.00;99777.38;5080072;28;20020;-73
2022/11/07 04:40:13;;;;;;;5.90;4.03;;;;;;;9.65;100.00;99768.19;5081882;28;20043;-73
2022/11/07 04:42:39;;;;;;;10.75;3.83;;;;;;;9.67;100.00;99762.69;5079048;28;20036;-73
2022/11/07 04:45:05;;;;;;;12.37;3.53;;;;;;;9.62;100.00;99757.91;5062850;28;20058;-73
2022/11/07 04:47:31;;;;;;;7.65;3.55;;;;;;;9.61;100.00;99753.56;5081461;28;20024;-71
2022/11/07 04:49:56;;;;;;;10.03;3.37;;;;;;;9.60;100.00;99757.25;5080185;28;20031;-74
2022/11/07 04:52:21;;;;;;;10.53;4.37;;;;;;;9.52;100.00;99773.28;5080025;28;20036;-73
2022/11/07 04:54:47;;;;;;;6.80;3.30;;;;;;;9.58;100.00;99763.78;5078539;28;20044;-73
2022/11/07 04:57:12;;;;;;;8.07;4.00;;;;;;;9.58;100.00;99777.91;5081726;28;20300;-73
2022/11/07 04:59:38;;;;;;;8.10;3.77;;;;;;;9.60;100.00;99791.91;5080720;28;20274;-73
2022/11/07 05:02:03;;;;;;;6.07;4.07;;;;;;;9.63;100.00;99783.53;5079591;28;20035;-71
2022/11/07 05:04:28;;;;;;;8.97;3.50;;;;;;;9.63;100.00;99794.19;5081227;28;20036;-72
2022/11/07 05:06:54;;;;;;;8.90;3.40;;;;;;;9.63;100.00;99791.53;5079935;28;20024;-72
2022/11/07 05:09:19;;;;;;;7.50;3.58;;;;;;;9.59;100.00;99795.56;5081536;28;20512;-72
2022/11/07 05:11:46;;;;;;;7.70;3.65;;;;;;;9.59;100.00;99808.88;5080149;28;20023;-74
2022/11/07 05:14:12;;;;;;;22.63;4.38;;;;;;;9.59;100.00;99810.72;5081262;28;20415;-72
2022/11/07 05:16:39;;;;;;;15.60;3.67;;;;;;;9.56;100.00;99819.91;5078657;28;20032;-74
2022/11/07 05:19:04;;;;;;;7.40;4.15;;;;;;;9.59;100.00;99848.84;5080948;28;20043;-73
2022/11/07 05:21:30;;;;;;;8.68;3.40;;;;;;;9.56;100.00;99838.56;5063193;28;20028;-73
2022/11/07 05:23:55;;;;;;;9.37;3.70;;;;;;;9.61;100.00;99860.16;5078490;28;20502;-74
2022/11/07 05:26:20;;;;;;;8.17;4.40;;;;;;;9.52;100.00;99847.91;5079627;28;20392;-72
2022/11/07 05:28:46;;;;;;;10.03;3.20;;;;;;;9.63;100.00;99866.16;5078432;28;20405;-74
2022/11/07 05:31:14;;;;;;;7.00;3.50;;;;;;;9.63;100.00;99855.50;5079663;28;20065;-73
2022/11/07 05:33:40;;;;;;;7.70;3.83;;;;;;;9.56;100.00;99862.53;5079692;28;20206;-73
2022/11/07 05:36:18;;;;;;;10.90;3.47;;;;;;;9.59;100.00;99890.66;5079415;28;20055;-73
2022/11/07 05:38:48;;;;;;;13.82;3.63;;;;;;;9.52;100.00;99875.38;5079932;28;20762;-72
2022/11/07 05:41:15;;;;;;;6.53;3.17;;;;;;;9.49;100.00;99905.03;5084859;28;20121;-73
2022/11/07 05:43:41;;;;;;;13.68;5.30;;;;;;;9.57;100.00;99916.66;5082045;28;20028;-73
2022/11/07 05:46:07;;;;;;;8.03;3.30;;;;;;;9.61;100.00;99920.63;5083463;28;20165;-74
2022/11/07 05:48:33;;;;;;;8.73;3.78;;;;;;;9.60;100.00;99892.31;5083404;28;20035;-74
2022/11/07 05:50:58;;;;;;;11.18;3.55;;;;;;;9.53;100.00;99894.88;5083745;28;20044;-71
2022/11/07 05:53:24;;;;;;;9.38;3.80;;;;;;;9.55;100.00;99911.50;5084914;28;20024;-73
2022/11/07 05:55:53;;;;;;;;;;;;;;;9.52;100.00;99912.69;5081707;28;20040;-74
2022/11/07 05:58:20;;;;;;;9.85;3.95;;;;;;;9.50;100.00;99929.84;5079491;28;19935;-73
2022/11/07 06:00:46;;;;;;;7.95;2.88;;;;;;;9.51;100.00;99926.19;5083236;28;20043;-73
2022/11/07 06:03:12;;;;;;;4.07;2.78;;;;;;;9.53;100.00;99929.53;5084384;28;20477;-74
2022/11/07 06:05:38;;;;;;;;;;;;;;;9.53;100.00;99929.53;5082399;28;20035;-72
2022/11/07 06:08:05;;;;;;;7.93;3.13;;;;;;;9.55;100.00;99932.00;5082812;28;19916;-74
2022/11/07 06:10:30;;;;;;;;;;;;;;;9.58;100.00;99927.16;5082935;28;20031;-73
2022/11/07 06:12:59;;;;;;;;;;;;;;;9.58;100.00;99945.81;5083386;28;19908;-72
2022/11/07 06:15:29;;;;;;;13.75;4.07;;;;;;;9.59;100.00;99941.28;5083004;28;19916;-73
2022/11/07 06:17:54;;;;;;;9.50;3.15;;;;;;;9.59;100.00;99944.78;5082705;28;20125;-74
2022/11/07 06:20:20;;;;;;;10.23;3.90;;;;;;;9.58;100.00;99937.81;5083118;28;20122;-74
2022/11/07 06:22:45;;;;;;;11.60;3.50;;;;;;;9.63;100.00;99934.63;5081525;28;20559;-72
2022/11/07 06:25:11;;;;;;;12.13;4.00;;;;;;;9.62;100.00;99936.47;5082787;28;20458;-74
2022/11/07 06:27:36;;;;;;;10.73;3.73;;;;;;;9.63;100.00;99951.44;5083362;28;20494;-73
2022/11/07 06:30:02;;;;;;;12.00;3.40;;;;;;;9.69;100.00;99939.22;5065454;28;20108;-73
2022/11/07 06:32:27;;;;;;;12.23;3.23;;;;;;;9.70;100.00;99946.22;5083758;28;20100;-74
2022/11/07 06:34:52;;;;;;;10.17;3.13;;;;;;;9.64;100.00;99928.28;5063990;28;20715;-73
2022/11/07 06:37:18;;;;;;;7.67;3.40;;;;;;;9.62;100.00;99943.59;5082942;28;20528;-72
2022/11/07 06:39:43;;;;;;;16.80;5.50;;;;;;;9.59;100.00;99938.63;5075800;28;20032;-71
2022/11/07 06:42:09;;;;;;;15.23;3.73;;;;;;;9.56;100.00;99942.47;5081784;28;20118;-73
2022/11/07 06:44:35;;;;;;;10.75;3.35;;;;;;;9.58;100.00;99947.66;5064472;28;20036;-73
2022/11/07 06:47:00;;;;;;;10.13;3.97;;;;;;;9.64;100.00;99960.25;5080939;28;20030;-73
2022/11/07 06:49:25;;;;;;;14.70;2.97;;;;;;;9.62;100.00;99971.09;5082942;28;20032;-73
2022/11/07 06:51:51;;;;;;;6.87;3.03;;;;;;;9.66;100.00;99961.72;5081815;28;20127;-73
2022/11/07 06:54:16;;;;;;;6.73;3.10;;;;;;;9.68;100.00;99972.22;5083493;28;20031;-74
2022/11/07 06:56:41;;;;;;;7.97;4.03;;;;;;;9.67;100.00;99958.06;5080468;28;20032;-72
2022/11/07 06:59:07;;;;;;;14.73;4.67;;;;;;;9.65;100.00;99969.94;5078831;28;20047;-72
2022/11/07 07:01:32;;;;;;;13.47;3.80;;;;;;;9.67;100.00;99978.56;5073510;28;20101;-73
2022/11/07 07:03:59;;;;;;;10.13;4.30;;;;;;;9.64;100.00;99974.41;5069285;28;20036;-72
2022/11/07 07:06:25;;;;;;;7.10;2.90;;;;;;;9.63;100.00;99977.25;5076495;28;20033;-72
2022/11/07 07:08:50;;;;;;;8.87;3.57;;;;;;;9.59;100.00;99986.59;5065406;28;20460;-72
2022/11/07 07:11:15;;;;;;;7.87;3.27;;;;;;;9.70;100.00;99996.88;5065946;28;20063;-72
2022/11/07 07:13:41;;;;;;;11.40;3.45;;;;;;;9.63;100.00;99993.25;5066337;28;20016;-72
2022/11/07 07:16:07;;;;;;;14.97;3.73;;;;;;;9.65;100.00;100005.41;5066430;28;20047;-72
2022/11/07 07:18:33;;;;;;;8.90;2.92;;;;;;;9.79;100.00;100014.50;5065337;28;20036;-72
2022/11/07 07:21:05;;;;;;;8.05;2.88;;;;;;;9.91;100.00;100017.59;5066612;28;20154;-72
2022/11/07 07:23:31;;;;;;;13.70;4.00;;;;;;;9.84;100.00;99984.63;5065111;28;20044;-73
2022/11/07 07:25:57;;;;;;;10.48;3.45;;;;;;;9.86;100.00;99979.97;5058105;28;20028;-72
2022/11/07 07:28:22;;;;;;;14.37;4.23;;;;;;;9.83;100.00;99973.16;5066632;28;20029;-72
2022/11/07 07:30:47;;;;;;;8.70;3.13;;;;;;;9.89;100.00;99988.41;5066245;28;20419;-72
2022/11/07 07:33:13;;;;;;;9.27;3.33;;;;;;;10.04;100.00;99991.16;5070159;28;20397;-74
2022/11/07 07:35:38;;;;;;;11.15;3.22;;;;;;;10.37;100.00;99985.59;5068449;28;20452;-73
2022/11/07 07:38:04;;;;;;;15.83;4.43;;;;;;;10.58;100.00;99955.53;5065171;28;20531;-73
2022/11/07 07:40:29;;;;;;;10.97;3.33;;;;;;;10.81;100.00;99918.09;5064999;28;20378;-72
2022/11/07 07:42:54;;;;;;;15.37;5.03;;;;;;;10.65;100.00;99843.53;5066199;28;20439;-73
2022/11/07 07:45:20;;;;;;;8.77;3.23;;;;;;;10.49;100.00;99845.41;5064427;28;20024;-72
2022/11/07 07:47:45;;;;;;;5.83;2.73;;;;;;;10.42;100.00;99825.81;5066408;28;20116;-72
2022/11/07 07:50:12;;;;;;;8.67;2.60;;;;;;;10.26;100.00;99836.63;5070818;28;20782;-73
2022/11/07 07:52:37;;;;;;;;;;;;;;;10.14;100.00;99858.41;5064865;28;20032;-72
2022/11/07 07:55:03;;;;;;;8.52;2.88;;;;;;;10.21;100.00;99887.00;5065264;28;20271;-74
2022/11/07 07:57:29;;;;;;;6.50;3.05;;;;;;;10.18;100.00;99906.03;5066089;28;20036;-73
2022/11/07 07:59:54;;;;;;;9.63;3.43;;;;;;;10.19;100.00;99916.53;5065850;28;20039;-72
2022/11/07 08:02:19;;;;;;;14.43;4.80;;;;;;;10.21;100.00;99914.53;5065433;28;20040;-72
2022/11/07 08:04:45;;;;;;;7.90;3.07;;;;;;;10.24;100.00;99921.34;5065673;28;20107;-72
2022/11/07 08:07:10;;;;;;;9.43;3.63;;;;;;;10.26;100.00;99919.31;5070652;28;20289;-72
2022/11/07 08:09:35;;;;;;;7.80;3.43;;;;;;;10.39;100.00;99924.88;5045133;28;20099;-72
2022/11/07 08:12:03;;;;;;;11.90;3.00;;;;;;;10.44;100.00;99922.50;5065666;28;20063;-73
2022/11/07 08:14:28;;;;;;;10.80;2.90;;;;;;;10.67;100.00;99909.06;5063964;28;20025;-75
2022/11/07 08:16:53;;;;;;;10.40;3.70;;;;;;;10.79;100.00;99893.44;5065694;28;20043;-73
2022/11/07 08:19:19;;;;;;;16.17;4.33;;;;;;;11.56;100.00;99878.72;5070708;28;20039;-73
2022/11/07 08:21:44;;;;;;;8.17;2.70;;;;;;;11.33;100.00;99735.44;5066898;28;20036;-72
2022/11/07 08:24:10;;;;;;;9.53;3.00;;;;;;;11.02;100.00;99709.03;5065622;28;20081;-73
2022/11/07 08:26:36;;;;;;;8.90;3.40;;;;;;;10.80;100.00;99728.75;5063951;28;20074;-72
2022/11/07 08:29:01;;;;;;;;;;;;;;;10.65;100.00;99742.09;5066175;28;20020;-72
2022/11/07 08:31:26;;;;;;;;;;;;;;;10.73;100.00;99792.72;5071321;28;20281;-72
2022/11/07 08:33:52;;;;;;;10.93;3.67;;;;;;;10.74;100.00;99815.72;5065071;28;19930;-73
2022/11/07 08:36:17;;;;;;;9.90;3.40;;;;;;;10.71;100.00;99824.13;5068782;28;20050;-72
2022/11/07 08:38:42;;;;;;;7.80;3.20;;;;;;;10.70;100.00;99842.00;5067221;28;20059;-73
2022/11/07 08:41:08;;;;;;;8.43;2.67;;;;;;;10.72;100.00;99861.31;5065426;28;20473;-74
2022/11/07 08:43:33;;;;;;;10.45;2.95;;;;;;;10.76;100.00;99859.09;5070614;28;20546;-72
2022/11/07 08:45:59;;;;;;;7.53;3.80;;;;;;;10.77;100.00;99855.44;5065043;28;20040;-72
2022/11/07 08:48:24;;;;;;;11.23;3.10;;;;;;;10.83;100.00;99860.00;5065326;28;20032;-73
2022/11/07 08:50:52;;;;;;;24.13;5.23;;;;;;;10.81;100.00;99866.56;5065147;28;20042;-72
2022/11/07 08:53:17;;;;;;;17.65;5.30;;;;;;;10.81;100.00;99867.38;5064787;28;20032;-73
2022/11/07 08:55:43;;;;;;;10.03;3.07;;;;;;;11.03;100.00;99903.00;5077005;28;20050;-74
2022/11/07 08:58:08;;;;;;;14.97;3.40;;;;;;;11.13;100.00;99876.00;5070697;28;20028;-75
2022/11/07 09:00:34;;;;;;;8.17;2.57;;;;;;;10.93;100.00;99825.84;5065033;28;20063;-73
2022/11/07 09:03:02;;;;;;;10.98;3.60;;;;;;;10.87;100.00;99823.91;5047045;28;20517;-73
2022/11/07 09:05:27;;;;;;;8.60;2.83;;;;;;;10.91;100.00;99851.06;5046747;28;20040;-72
2022/11/07 09:07:52;;;;;;;18.00;3.17;;;;;;;10.85;100.00;99849.97;5046961;28;20150;-73
2022/11/07 09:10:18;;;;;;;13.90;3.47;;;;;;;10.91;100.00;99870.59;5064934;28;20071;-74
2022/11/07 09:12:45;;;;;;;7.37;3.90;;;;;;;10.92;100.00;99869.56;5063503;28;20036;-73
2022/11/07 09:15:11;;;;;;;9.90;3.53;;;;;;;10.97;100.00;99869.84;5066208;28;20028;-73
2022/11/07 09:17:36;;;;;;;14.75;4.00;;;;;;;11.04;100.00;99863.75;5067809;28;20036;-72
2022/11/07 09:20:02;;;;;;;11.03;2.80;;;;;;;11.13;100.00;99862.63;5074265;28;20147;-73
2022/11/07 09:22:27;;;;;;;12.27;2.83;;;;;;;11.06;100.00;99840.38;5067627;28;20063;-72
2022/11/07 09:24:53;;;;;;;9.37;3.23;;;;;;;11.10;100.00;99842.47;5043449;28;20555;-75
2022/11/07 09:27:18;;;;;;;10.43;3.13;;;;;;;11.20;100.00;99858.19;5067470;28;20428;-74
2022/11/07 09:29:43;;;;;;;16.83;2.80;;;;;;;11.21;100.00;99825.09;5045869;28;20047;-75
2022/11/07 09:32:09;;;;;;;6.47;2.70;;;;;;;11.20;100.00;99810.13;5053272;28;20045;-73
2022/11/07 09:34:34;;;;;;;14.03;3.30;;;;;;;11.34;100.00;99821.78;5065260;28;20044;-73
2022/11/07 09:37:01;;;;;;;9.70;3.27;;;;;;;11.43;100.00;99820.63;4983575;28;20038;-74
2022/11/07 09:39:27;;;;;;;12.30;2.97;;;;;;;11.45;100.00;99791.03;4987403;28;20038;-73
2022/11/07 09:42:05;;;;;;;13.90;3.60;;;;;;;11.40;100.00;99771.06;4988073;28;20038;-73
2022/11/07 09:44:37;;;;;;;9.05;2.50;;;;;;;11.57;100.00;99797.53;4987581;28;20038;-73
2022/11/07 09:47:16;;;;;;;14.23;4.03;;;;;;;12.46;100.00;99842.47;4987648;28;20514;-73
2022/11/07 09:49:55;;;;;;;10.73;2.60;;;;;;;12.08;100.00;99652.88;4986649;28;20048;-73
2022/11/07 09:52:36;;;;;;;9.52;2.40;;;;;;;11.78;100.00;99637.06;4987355;28;20034;-73
2022/11/07 09:55:13;;;;;;;19.20;3.15;;;;;;;11.78;100.00;99671.00;4987127;28;20042;-73
2022/11/07 09:57:39;;;;;;;8.98;3.00;;;;;;;12.08;100.00;99719.75;4987431;28;20034;-74
2022/11/07 10:00:10;;;;;;;8.27;2.80;;;;;;;13.21;100.00;99708.59;4986277;28;20028;-73
2022/11/07 10:02:41;;;;;;;6.88;2.95;;;;;;;12.68;100.00;99514.63;4987648;28;20033;-72
2022/11/07 10:05:44;;;;;;;15.70;4.50;;;;;;;12.87;100.00;99416.53;4985743;28;20152;-74
2022/11/07 10:08:26;;;;;;;7.47;2.50;;;;;;;12.65;100.00;99480.25;4985572;28;20034;-72
2022/11/07 10:10:58;;;;;;;13.98;2.92;;;;;;;12.17;100.00;99437.59;4985548;28;20034;-73
2022/11/07 10:13:44;;;;;;;10.55;3.20;;;;;;;12.06;100.00;99558.63;4986292;28;20211;-72
2022/11/07 10:16:28;;;;;;;5.10;2.38;;;;;;;12.94;100.00;99675.56;4986728;28;20042;-73
2022/11/07 10:19:07;;;;;;;7.47;2.30;;;;;;;13.30;100.00;99509.03;4986010;28;20038;-74
2022/11/07 10:21:39;;;;;;;11.00;2.40;;;;;;;12.91;100.00;99379.47;4982835;28;20038;-75
2022/11/07 10:24:33;;;;;;;8.45;2.55;;;;;;;13.10;100.00;99388.47;4987094;28;20030;-74
2022/11/07 10:26:59;;;;;;;8.15;2.35;;;;;;;12.52;100.00;99324.97;4985614;28;20034;-74
2022/11/07 10:29:30;;;;;;;15.05;2.75;;;;;;;12.35;100.00;99420.13;4985870;28;20049;-72
2022/11/07 10:32:15;;;;;;;5.20;2.15;;;;;;;12.24;100.00;99497.34;4986899;28;20034;-73
2022/11/07 10:34:48;;;;;;;11.32;2.38;;;;;;;12.22;100.00;99504.72;5001432;28;20044;-72
2022/11/07 10:37:13;;;;;;;6.63;2.55;;;;;;;12.31;100.00;99521.41;4985425;28;20109;-73
2022/11/07 10:39:39;;;;;;;5.83;2.63;;;;;;;12.28;100.00;99508.44;4985504;28;20458;-73
2022/11/07 10:42:12;;;;;;;7.40;2.50;;;;;;;12.17;100.00;99538.47;4986945;28;20465;-73
2022/11/07 10:44:41;;;;;;;8.63;2.50;;;;;;;12.12;100.00;99563.16;4984195;28;20137;-75
2022/11/07 10:47:17;;;;;;;5.38;2.40;;;;;;;12.21;100.00;99612.78;4985446;28;20090;-72
2022/11/07 10:50:16;;;;;;;7.65;2.60;;;;;;;12.17;100.00;99622.22;5001239;28;20034;-75
2022/11/07 10:52:51;;;;;;;9.52;2.88;;;;;;;12.10;100.00;99687.44;5016929;28;20101;-73
2022/11/07 10:55:16;;;;;;;8.55;2.92;;;;;;;12.18;100.00;99730.91;4986077;28;20042;-74
2022/11/07 10:57:53;;;;;;;5.90;2.60;;;;;;;12.05;100.00;99738.88;4986584;28;20025;-73
2022/11/07 11:00:30;;;;;;;7.47;2.72;;;;;;;12.27;100.00;99776.22;4984158;28;20037;-74
2022/11/07 11:02:57;;;;;;;7.70;2.85;;;;;;;12.48;100.00;99797.59;4986434;28;20086;-73
2022/11/07 11:05:41;;;;;;;9.90;2.40;;;;;;;12.48;100.00;99706.56;4984667;28;20073;-72
2022/11/07 11:08:22;;;;;;;13.65;3.67;;;;;;;12.28;100.00;99722.53;5016706;28;20038;-72
2022/11/07 11:10:49;;;;;;;8.70;2.60;;;;;;;12.29;100.00;99776.88;4983901;28;20898;-72
2022/11/07 11:13:30;;;;;;;7.35;2.80;;;;;;;12.02;100.00;99784.75;4983966;28;20014;-72
2022/11/07 11:15:58;;;;;;;9.43;2.65;;;;;;;12.02;100.00;99854.28;4983987;28;20049;-72
2022/11/07 11:18:23;;;;;;;6.50;3.25;;;;;;;11.92;100.00;99856.50;5015757;28;20500;-72
2022/11/07 11:21:02;;;;;;;5.47;2.72;;;;;;;11.92;100.00;99891.25;4985480;28;20078;-72
2022/11/07 11:23:35;;;;;;;9.70;3.17;;;;;;;11.96;100.00;99951.34;4984349;28;20086;-72
2022/11/07 11:26:15;;;;;;;10.63;3.00;;;;;;;11.93;100.00;99955.25;4985286;28;20030;-73
2022/11/07 11:28:48;;;;;;;5.70;2.72;;;;;;;11.92;100.00;99971.50;4985633;28;20555;-73
2022/11/07 11:31:17;;;;;;;8.02;2.83;;;;;;;11.90;100.00;99969.00;4985393;28;20046;-73
2022/11/07 11:33:56;;;;;;;9.55;2.88;;;;;;;11.91;100.00;99984.03;5016426;28;20084;-73
2022/11/07 11:36:26;;;;;;;12.32;2.85;;;;;;;11.87;100.00;99981.88;4983018;28;20108;-72
2022/11/07 11:38:53;;;;;;;6.78;2.70;;;;;;;11.87;100.00;99977.41;4982728;28;20030;-72
2022/11/07 11:41:41;;;;;;;12.65;3.08;;;;;;;11.95;100.00;99958.56;5000414;28;20392;-72
2022/11/07 11:44:22;;;;;;;9.13;3.00;;;;;;;12.07;100.00;99977.59;4983620;28;20369;-73
2022/11/07 11:47:16;;;;;;;12.68;3.45;;;;;;;12.13;100.00;99987.56;4982900;28;20818;-73